Time;durP1;ratioP1;P1;durP2;ratioP2;P2;SDS_P1;SDS_P2;PMS_P1;PMS_P2;Temp;Humidity;BMP_temperature;BMP_pressure;BME280_temperature;BME280_humidity;BME280_pressure;Samples;Min_cycle;Max_cycle;Signal;HPM_P1;HPM_P2
2024/01/18 00:01:56;;;;;;;48.60;18.92;;;;;;;1.46;100.00;97106.88;5954907;23;20088;-85
2024/01/18 00:04:23;;;;;;;41.58;16.58;;;;;;;1.47;100.00;97103.28;6000634;23;20097;-84
2024/01/18 00:06:51;;;;;;;48.80;18.20;;;;;;;1.44;100.00;97093.09;6001695;23;20461;-84
2024/01/18 00:09:18;;;;;;;43.65;17.25;;;;;;;1.48;100.00;97104.13;5977839;23;20028;-84
2024/01/18 00:11:46;;;;;;;56.20;19.23;;;;;;;1.51;100.00;97098.59;5977743;23;20039;-84
2024/01/18 00:14:13;;;;;;;54.75;19.17;;;;;;;1.52;100.00;97101.03;5954840;23;20046;-84
2024/01/18 00:16:40;;;;;;;68.78;21.92;;;;;;;1.56;100.00;97112.06;5932447;23;20026;-84
2024/01/18 00:19:08;;;;;;;63.53;19.83;;;;;;;1.58;100.00;97111.88;6001054;23;20048;-84
2024/01/18 00:21:35;;;;;;;72.93;21.45;;;;;;;1.60;100.00;97120.41;5932756;23;20471;-84
2024/01/18 00:24:02;;;;;;;53.05;18.17;;;;;;;1.61;100.00;97122.06;5950644;23;20034;-84
2024/01/18 00:26:29;;;;;;;72.78;21.50;;;;;;;1.63;100.00;97127.97;5950077;23;20027;-84
2024/01/18 00:28:56;;;;;;;38.47;14.82;;;;;;;1.62;100.00;97121.09;5950375;23;20020;-84
2024/01/18 00:31:23;;;;;;;59.72;20.33;;;;;;;1.63;100.00;97130.56;5949727;23;20028;-84
2024/01/18 00:33:52;;;;;;;51.42;18.33;;;;;;;1.63;100.00;97128.81;5950184;23;20032;-84
2024/01/18 00:36:19;;;;;;;49.13;16.88;;;;;;;1.66;100.00;97143.38;5927360;23;20028;-85
2024/01/18 00:38:46;;;;;;;37.47;15.60;;;;;;;1.65;100.00;97147.78;5927533;23;20381;-84
2024/01/18 00:41:13;;;;;;;44.25;15.48;;;;;;;1.63;100.00;97143.66;5904108;23;20107;-83
2024/01/18 00:43:40;;;;;;;41.70;15.55;;;;;;;1.65;100.00;97152.19;5948565;23;20501;-83
2024/01/18 00:46:07;;;;;;;54.83;18.52;;;;;;;1.65;100.00;97155.63;5926732;23;20032;-83
2024/01/18 00:48:34;;;;;;;47.47;17.63;;;;;;;1.65;100.00;97160.84;5949701;23;20100;-84
2024/01/18 00:51:01;;;;;;;53.83;19.55;;;;;;;1.68;100.00;97157.13;5904531;23;20028;-83
2024/01/18 00:53:27;;;;;;;50.75;18.90;;;;;;;1.68;100.00;97168.44;5948945;23;20016;-83
2024/01/18 00:55:54;;;;;;;47.10;17.65;;;;;;;1.64;100.00;97169.69;5927044;23;20333;-84
2024/01/18 00:58:21;;;;;;;52.60;18.52;;;;;;;1.66;100.00;97193.91;5927040;23;20020;-83
2024/01/18 01:00:48;;;;;;;42.20;14.90;;;;;;;1.65;100.00;97192.25;5950005;23;20103;-84
2024/01/18 01:03:16;;;;;;;47.40;16.25;;;;;;;1.68;100.00;97197.22;5925923;23;20371;-84
2024/01/18 01:05:43;;;;;;;58.25;16.63;;;;;;;1.74;100.00;97195.78;5950179;23;20024;-83
2024/01/18 01:08:10;;;;;;;71.47;20.95;;;;;;;1.78;100.00;97205.00;5949367;23;20020;-83
2024/01/18 01:10:37;;;;;;;42.65;14.63;;;;;;;1.80;100.00;97212.69;5926624;23;20028;-84
2024/01/18 01:13:04;;;;;;;38.80;13.73;;;;;;;1.80;100.00;97208.28;5950502;23;20398;-83
2024/01/18 01:15:30;;;;;;;63.22;19.73;;;;;;;1.86;100.00;97210.34;5950153;23;20556;-83
2024/01/18 01:17:57;;;;;;;60.70;18.92;;;;;;;1.89;100.00;97206.59;5904223;23;20036;-84
2024/01/18 01:20:24;;;;;;;94.05;22.02;;;;;;;1.89;100.00;97204.81;5927715;23;20382;-83
2024/01/18 01:22:51;;;;;;;67.38;19.10;;;;;;;1.94;100.00;97215.66;5927395;23;20040;-84
2024/01/18 01:25:18;;;;;;;52.60;18.52;;;;;;;1.95;100.00;97219.09;5972526;23;20460;-84
2024/01/18 01:27:45;;;;;;;47.63;14.68;;;;;;;1.94;100.00;97213.03;5973010;23;20024;-84
2024/01/18 01:30:12;;;;;;;60.50;16.63;;;;;;;1.98;100.00;97224.03;5928291;23;20103;-84
2024/01/18 01:32:38;;;;;;;46.38;15.00;;;;;;;1.98;100.00;97215.38;5994414;23;20024;-83
2024/01/18 01:35:05;;;;;;;40.30;12.85;;;;;;;2.01;100.00;97217.69;5948697;23;20024;-83
2024/01/18 01:37:32;;;;;;;41.63;12.88;;;;;;;2.01;100.00;97215.06;5949026;23;20032;-84
2024/01/18 01:39:59;;;;;;;27.20;8.65;;;;;;;2.00;100.00;97232.56;5926865;23;20453;-83
2024/01/18 01:42:26;;;;;;;107.30;27.38;;;;;;;2.06;100.00;97228.53;5950153;23;20123;-83
2024/01/18 01:44:54;;;;;;;117.57;29.10;;;;;;;2.07;100.00;97249.34;5928366;23;20127;-83
2024/01/18 01:47:21;;;;;;;93.05;27.45;;;;;;;2.05;100.00;97232.94;5950742;23;20020;-82
2024/01/18 01:49:48;;;;;;;82.03;25.23;;;;;;;2.06;100.00;97236.38;5951007;23;20020;-83
2024/01/18 01:52:16;;;;;;;149.15;35.25;;;;;;;2.08;100.00;97252.78;5950866;23;20024;-83
2024/01/18 01:54:44;;;;;;;119.10;30.50;;;;;;;2.10;100.00;97238.56;5928079;23;20055;-83
2024/01/18 01:57:11;;;;;;;100.85;29.17;;;;;;;2.09;100.00;97244.78;5950535;23;20020;-83
2024/01/18 01:59:41;;;;;;;101.05;26.50;;;;;;;2.09;100.00;97239.56;5907989;23;20031;-83
2024/01/18 02:02:08;;;;;;;110.25;30.35;;;;;;;2.08;100.00;97248.34;5950341;23;20332;-84
2024/01/18 02:04:35;;;;;;;72.25;24.67;;;;;;;2.09;100.00;97236.13;5949624;23;20357;-83
2024/01/18 02:07:02;;;;;;;68.45;20.75;;;;;;;2.06;100.00;97234.63;5951128;23;20084;-83
2024/01/18 02:09:29;;;;;;;72.82;21.02;;;;;;;2.06;100.00;97234.63;5950175;23;20098;-83
2024/01/18 02:11:56;;;;;;;51.83;16.65;;;;;;;2.04;100.00;97240.97;5927397;23;20393;-83
2024/01/18 02:14:24;;;;;;;41.20;12.73;;;;;;;2.03;100.00;97228.84;5949968;23;20369;-84
2024/01/18 02:16:51;;;;;;;62.15;19.60;;;;;;;2.03;100.00;97250.59;5927955;23;20467;-83
2024/01/18 02:19:18;;;;;;;46.70;16.13;;;;;;;2.04;100.00;97254.06;5994686;23;21149;-83
2024/01/18 02:21:45;;;;;;;44.13;15.13;;;;;;;2.04;100.00;97243.59;5905204;23;20390;-83
2024/01/18 02:24:18;;;;;;;45.40;15.23;;;;;;;2.03;100.00;97232.28;5950411;23;20363;-83
2024/01/18 02:26:44;;;;;;;34.90;14.27;;;;;;;2.03;100.00;97253.22;5950520;23;20399;-83
2024/01/18 02:29:11;;;;;;;49.65;15.82;;;;;;;2.02;100.00;97254.19;5949389;23;20064;-83
2024/01/18 02:31:38;;;;;;;59.13;19.40;;;;;;;2.03;100.00;97257.63;5927856;23;20024;-83
2024/01/18 02:34:09;;;;;;;49.38;15.68;;;;;;;2.04;100.00;97251.44;5950577;23;20020;-82
2024/01/18 02:36:36;;;;;;;40.30;14.80;;;;;;;2.03;100.00;97252.38;5950601;23;20027;-83
2024/01/18 02:39:03;;;;;;;35.80;13.98;;;;;;;2.04;100.00;97256.69;5950616;23;20323;-82
2024/01/18 02:41:31;;;;;;;37.83;13.00;;;;;;;2.03;100.00;97276.75;5927881;23;20031;-82
2024/01/18 02:44:02;;;;;;;40.38;11.90;;;;;;;2.01;100.00;97283.09;5927938;23;20028;-83
2024/01/18 02:46:33;;;;;;;29.98;9.95;;;;;;;2.01;100.00;97289.19;5927496;23;20020;-83
2024/01/18 02:49:00;;;;;;;35.78;12.63;;;;;;;2.00;100.00;97292.75;5950843;23;20485;-83
2024/01/18 02:51:27;;;;;;;39.22;12.95;;;;;;;1.97;100.00;97281.78;5927373;23;20367;-83
2024/01/18 02:53:54;;;;;;;39.53;14.18;;;;;;;1.97;100.00;97287.00;5950897;23;20020;-82
2024/01/18 02:56:21;;;;;;;43.92;14.52;;;;;;;1.98;100.00;97280.78;5928018;23;20364;-84
2024/01/18 02:58:48;;;;;;;38.85;13.52;;;;;;;1.98;100.00;97275.56;5949789;23;20721;-83
2024/01/18 03:01:15;;;;;;;31.58;11.18;;;;;;;1.97;100.00;97266.88;5973485;23;20392;-83
2024/01/18 03:03:42;;;;;;;33.50;10.77;;;;;;;1.97;100.00;97272.13;5927038;23;20076;-83
2024/01/18 03:06:09;;;;;;;45.13;15.10;;;;;;;1.94;100.00;97265.38;5971450;23;20069;-83
2024/01/18 03:08:36;;;;;;;39.40;12.52;;;;;;;1.97;100.00;97272.13;5973723;23;20520;-83
2024/01/18 03:11:03;;;;;;;41.03;14.57;;;;;;;1.97;100.00;97269.50;5904759;23;20050;-83
2024/01/18 03:13:31;;;;;;;37.28;14.25;;;;;;;1.98;100.00;97267.72;5927217;23;20032;-83
2024/01/18 03:15:58;;;;;;;37.63;12.05;;;;;;;1.96;100.00;97273.09;5928132;23;20032;-83
2024/01/18 03:18:25;;;;;;;31.58;10.73;;;;;;;1.97;100.00;97276.53;5950082;23;20422;-83
2024/01/18 03:20:52;;;;;;;21.58;7.40;;;;;;;1.98;100.00;97278.16;5950502;23;20080;-84
2024/01/18 03:23:19;;;;;;;17.98;6.57;;;;;;;1.98;100.00;97273.75;5927601;23;20024;-84
2024/01/18 03:25:45;;;;;;;17.25;6.90;;;;;;;1.97;100.00;97274.75;5929015;23;20057;-83
2024/01/18 03:28:12;;;;;;;17.60;6.85;;;;;;;1.96;100.00;97280.94;5903809;23;20456;-84
2024/01/18 03:30:40;;;;;;;15.55;6.55;;;;;;;1.94;100.00;97275.84;5905154;23;20104;-83
2024/01/18 03:33:07;;;;;;;17.42;6.82;;;;;;;1.93;100.00;97281.22;5927895;23;20025;-83
2024/01/18 03:35:34;;;;;;;16.73;6.63;;;;;;;1.94;100.00;97281.09;5926834;23;20024;-84
2024/01/18 03:38:01;;;;;;;21.15;7.97;;;;;;;1.94;100.00;97283.69;5973477;23;20019;-84
2024/01/18 03:40:28;;;;;;;13.57;6.00;;;;;;;1.93;100.00;97287.31;5928833;23;20032;-84
2024/01/18 03:42:55;;;;;;;9.48;4.95;;;;;;;1.94;100.00;97285.50;5927196;23;20465;-84
2024/01/18 03:45:22;;;;;;;10.15;4.25;;;;;;;1.94;100.00;97288.94;5950134;23;20323;-84
2024/01/18 03:47:48;;;;;;;7.57;3.70;;;;;;;1.94;100.00;97286.31;5926901;23;20095;-84
2024/01/18 03:50:15;;;;;;;10.35;4.25;;;;;;;1.94;100.00;97288.13;5949722;23;20016;-84
2024/01/18 03:52:42;;;;;;;16.27;6.63;;;;;;;1.95;100.00;97287.13;5927284;23;20024;-84
2024/01/18 03:55:09;;;;;;;37.95;12.35;;;;;;;1.96;100.00;97291.41;5926866;23;20042;-83
2024/01/18 03:57:37;;;;;;;41.45;13.52;;;;;;;2.00;100.00;97289.31;5927074;23;20291;-84
2024/01/18 04:00:05;;;;;;;42.85;14.35;;;;;;;2.02;100.00;97287.41;5928477;23;20414;-84
2024/01/18 04:02:34;;;;;;;32.22;12.68;;;;;;;2.03;100.00;97292.47;5905242;23;20397;-84
2024/01/18 04:05:01;;;;;;;34.08;11.80;;;;;;;2.04;100.00;97281.03;5949773;23;20084;-84
2024/01/18 04:07:27;;;;;;;24.90;9.95;;;;;;;2.03;100.00;97292.47;5927297;23;20077;-84
2024/01/18 04:09:54;;;;;;;39.08;13.82;;;;;;;2.03;100.00;97286.41;5928748;23;20398;-83
2024/01/18 04:12:21;;;;;;;26.67;10.88;;;;;;;2.03;100.00;97302.13;5949515;23;20064;-85
2024/01/18 04:14:48;;;;;;;19.77;9.45;;;;;;;2.00;100.00;97302.41;5927182;23;20098;-83
2024/01/18 04:17:16;;;;;;;24.75;10.05;;;;;;;2.05;100.00;97315.88;5948838;23;20468;-84
2024/01/18 04:19:42;;;;;;;23.45;9.68;;;;;;;2.05;100.00;97313.28;5926923;23;20484;-85
2024/01/18 04:22:09;;;;;;;16.55;6.85;;;;;;;2.05;100.00;97314.09;5926623;23;20099;-85
2024/01/18 04:24:36;;;;;;;17.02;8.30;;;;;;;2.06;100.00;97312.28;5974589;23;20080;-84
2024/01/18 04:27:03;;;;;;;21.00;9.05;;;;;;;2.06;100.00;97315.75;5949487;23;20024;-84
2024/01/18 04:29:31;;;;;;;17.73;7.47;;;;;;;2.03;100.00;97317.81;5950458;23;20030;-84
2024/01/18 04:31:58;;;;;;;14.32;6.70;;;;;;;2.04;100.00;97327.34;5951495;23;20040;-84
2024/01/18 04:34:25;;;;;;;19.15;7.28;;;;;;;2.06;100.00;97349.78;5948755;23;20016;-84
2024/01/18 04:36:52;;;;;;;14.73;6.88;;;;;;;2.03;100.00;97326.50;5950694;23;20397;-84
2024/01/18 04:39:18;;;;;;;16.70;7.00;;;;;;;2.03;100.00;97326.50;5904170;23;20394;-84
2024/01/18 04:41:45;;;;;;;13.18;6.22;;;;;;;2.04;100.00;97324.72;5950037;23;20654;-84
2024/01/18 04:44:13;;;;;;;16.63;8.13;;;;;;;2.04;100.00;97324.72;5949639;23;20117;-84
2024/01/18 04:46:45;;;;;;;19.70;7.68;;;;;;;2.02;100.00;97330.09;5949346;23;20027;-84
2024/01/18 04:49:13;;;;;;;15.70;6.80;;;;;;;2.03;100.00;97329.13;5853157;23;20096;-84
2024/01/18 04:51:40;;;;;;;18.08;7.78;;;;;;;2.03;100.00;97326.50;5947967;23;20028;-86
2024/01/18 04:54:07;;;;;;;18.35;8.02;;;;;;;2.03;100.00;97339.59;5974288;23;20117;-84
2024/01/18 04:56:35;;;;;;;23.20;8.52;;;;;;;2.03;100.00;97344.00;5949056;23;20020;-85
2024/01/18 04:59:02;;;;;;;16.65;7.30;;;;;;;2.04;100.00;97345.66;5926571;23;20028;-86
2024/01/18 05:01:29;;;;;;;19.60;8.10;;;;;;;2.04;100.00;97345.66;5926393;23;20036;-85
2024/01/18 05:03:56;;;;;;;21.52;8.82;;;;;;;2.02;100.00;97344.97;5948807;23;20020;-84
2024/01/18 05:06:23;;;;;;;23.95;11.02;;;;;;;1.99;100.00;97358.34;5925982;23;20028;-86
2024/01/18 05:08:53;;;;;;;28.70;11.27;;;;;;;1.99;100.00;97363.59;5905064;23;20100;-84
2024/01/18 05:11:20;;;;;;;24.20;12.90;;;;;;;1.98;100.00;97364.53;5926366;23;20027;-85
2024/01/18 05:13:47;;;;;;;27.05;10.23;;;;;;;1.98;100.00;97362.75;5952969;23;20165;-84
2024/01/18 05:16:14;;;;;;;66.50;20.23;;;;;;;1.97;100.00;97352.44;5976824;23;20032;-85
2024/01/18 05:18:41;;;;;;;46.83;13.43;;;;;;;1.99;100.00;97355.75;5979319;23;20016;-85
2024/01/18 05:21:09;;;;;;;81.90;23.95;;;;;;;1.98;100.00;97354.06;6001965;23;20027;-85
2024/01/18 05:23:36;;;;;;;39.40;13.23;;;;;;;1.99;100.00;97364.41;5978981;23;20019;-85
2024/01/18 05:26:04;;;;;;;29.23;13.07;;;;;;;1.99;100.00;97355.75;6002062;23;20020;-88
2024/01/18 05:28:30;;;;;;;33.75;13.00;;;;;;;1.99;100.00;97346.09;5978175;23;20360;-87
2024/01/18 05:30:57;;;;;;;76.43;21.27;;;;;;;2.02;100.00;97350.22;5955833;23;20032;-87
2024/01/18 05:33:24;;;;;;;55.88;16.15;;;;;;;2.00;100.00;97360.81;5978791;23;20095;-86
2024/01/18 05:35:51;;;;;;;37.58;11.25;;;;;;;2.00;100.00;97389.59;5955981;23;20028;-86
2024/01/18 05:38:18;;;;;;;112.70;28.10;;;;;;;2.00;100.00;97397.47;5955764;23;20083;-86
2024/01/18 05:40:45;;;;;;;56.22;17.38;;;;;;;2.00;100.00;97394.84;5979016;23;20027;-86
2024/01/18 05:43:12;;;;;;;17.48;7.35;;;;;;;2.00;100.00;97400.06;5932681;23;20035;-82
2024/01/18 05:45:39;;;;;;;33.28;10.80;;;;;;;2.01;100.00;97406.13;6001531;23;20035;-85
2024/01/18 05:48:06;;;;;;;66.63;18.08;;;;;;;2.01;100.00;97400.88;5976239;23;20103;-83
2024/01/18 05:50:33;;;;;;;44.97;13.27;;;;;;;2.00;100.00;97412.34;5950058;23;20060;-83
2024/01/18 05:53:00;;;;;;;34.30;11.77;;;;;;;2.02;100.00;97406.00;5927822;23;20023;-83
2024/01/18 05:55:27;;;;;;;56.15;15.60;;;;;;;1.97;100.00;97408.22;5994309;23;20076;-83
2024/01/18 05:57:54;;;;;;;44.92;13.32;;;;;;;2.00;100.00;97414.97;5950605;23;20100;-83
2024/01/18 06:00:21;;;;;;;35.58;11.88;;;;;;;1.99;100.00;97402.84;5950465;23;20088;-83
2024/01/18 06:02:47;;;;;;;19.92;6.90;;;;;;;2.01;100.00;97406.97;5928532;23;20337;-83
2024/01/18 06:05:15;;;;;;;16.70;6.57;;;;;;;2.01;100.00;97398.28;5949988;23;20024;-83
2024/01/18 06:07:42;;;;;;;60.20;16.90;;;;;;;2.02;100.00;97402.56;5927752;23;20036;-84
2024/01/18 06:10:09;;;;;;;28.90;10.50;;;;;;;2.02;100.00;97397.31;5994187;23;20020;-83
2024/01/18 06:12:36;;;;;;;31.73;9.82;;;;;;;2.01;100.00;97385.19;5973374;23;20491;-83
2024/01/18 06:15:04;;;;;;;26.27;9.60;;;;;;;2.03;100.00;97385.88;5928209;23;20111;-85
2024/01/18 06:17:30;;;;;;;30.25;9.48;;;;;;;2.02;100.00;97371.97;5950987;23;20020;-83
2024/01/18 06:19:57;;;;;;;29.35;9.60;;;;;;;2.03;100.00;97368.38;5927342;23;20032;-83
2024/01/18 06:22:24;;;;;;;40.17;11.52;;;;;;;2.01;100.00;97364.25;5973176;23;20091;-86
2024/01/18 06:24:51;;;;;;;88.18;21.13;;;;;;;2.01;100.00;97354.63;5950557;23;20020;-83
2024/01/18 06:27:18;;;;;;;61.38;16.80;;;;;;;2.02;100.00;97358.06;5949936;23;20040;-83
2024/01/18 06:29:45;;;;;;;245.27;54.63;;;;;;;2.01;100.00;97356.41;5927149;23;20055;-83
2024/01/18 06:32:12;;;;;;;49.63;15.60;;;;;;;2.01;100.00;97359.00;5973132;23;20027;-83
2024/01/18 06:34:38;;;;;;;23.02;8.75;;;;;;;2.00;100.00;97363.44;5904962;23;20028;-83
2024/01/18 06:37:05;;;;;;;56.13;14.63;;;;;;;2.00;100.00;97358.19;5927418;23;20128;-81
2024/01/18 06:39:32;;;;;;;25.30;8.63;;;;;;;1.99;100.00;97359.19;5970342;23;20043;-81
2024/01/18 06:42:01;;;;;;;44.47;12.73;;;;;;;1.99;100.00;97367.03;5948629;23;20032;-82
2024/01/18 06:44:28;;;;;;;150.23;32.40;;;;;;;1.98;100.00;97365.34;5926219;23;20398;-82
2024/01/18 06:46:55;;;;;;;33.08;9.93;;;;;;;1.96;100.00;97369.94;5903278;23;20103;-81
2024/01/18 06:49:22;;;;;;;40.90;12.95;;;;;;;1.95;100.00;97363.03;5945170;23;20024;-81
2024/01/18 06:51:49;;;;;;;31.67;13.32;;;;;;;1.96;100.00;97375.16;5949010;23;20020;-81
2024/01/18 06:54:21;;;;;;;11.57;4.85;;;;;;;1.97;100.00;97373.38;5971101;23;20655;-81
2024/01/18 06:56:47;;;;;;;8.27;3.90;;;;;;;1.99;100.00;97371.44;5949114;23;20030;-82
2024/01/18 06:59:15;;;;;;;8.35;4.38;;;;;;;1.93;100.00;97352.72;5947654;23;20461;-82
2024/01/18 07:01:42;;;;;;;12.93;6.18;;;;;;;1.87;100.00;97368.97;5947975;23;20070;-82
2024/01/18 07:04:10;;;;;;;11.73;4.97;;;;;;;1.90;100.00;97379.16;5926388;23;20323;-81
2024/01/18 07:06:37;;;;;;;10.35;4.88;;;;;;;1.92;100.00;97377.22;5925338;23;20028;-82
2024/01/18 07:09:06;;;;;;;12.10;5.63;;;;;;;1.95;100.00;97368.25;5947754;23;20091;-81
2024/01/18 07:11:33;;;;;;;6.20;3.95;;;;;;;1.92;100.00;97371.16;5926186;23;20040;-81
2024/01/18 07:14:00;;;;;;;8.13;3.92;;;;;;;1.93;100.00;97371.03;5948520;23;20717;-81
2024/01/18 07:16:27;;;;;;;8.73;3.75;;;;;;;1.95;100.00;97376.94;5924789;23;20032;-82
2024/01/18 07:18:54;;;;;;;8.38;3.40;;;;;;;1.96;100.00;97372.56;5926547;23;20071;-81
2024/01/18 07:21:21;;;;;;;11.77;5.00;;;;;;;1.97;100.00;97376.81;5925006;23;20032;-81
2024/01/18 07:23:48;;;;;;;7.22;3.65;;;;;;;1.96;100.00;97375.16;5947748;23;20080;-82
2024/01/18 07:26:15;;;;;;;10.45;5.03;;;;;;;1.96;100.00;97380.41;5948136;23;20031;-81
2024/01/18 07:28:41;;;;;;;9.15;4.95;;;;;;;1.94;100.00;97390.19;5947959;23;20020;-81
2024/01/18 07:31:08;;;;;;;12.10;4.78;;;;;;;1.91;100.00;97390.47;5947690;23;20087;-82
2024/01/18 07:33:37;;;;;;;10.23;4.10;;;;;;;1.91;100.00;97406.16;5924947;23;20344;-81
2024/01/18 07:36:04;;;;;;;22.88;8.60;;;;;;;1.91;100.00;97407.00;5949264;23;20027;-81
2024/01/18 07:38:31;;;;;;;13.38;7.15;;;;;;;1.91;100.00;97403.56;5946819;23;20684;-81
2024/01/18 07:40:58;;;;;;;9.70;5.10;;;;;;;1.88;100.00;97406.44;5948007;23;20591;-81
2024/01/18 07:43:25;;;;;;;12.23;6.93;;;;;;;1.92;100.00;97405.19;5924882;23;20028;-82
2024/01/18 07:45:51;;;;;;;9.48;4.18;;;;;;;1.87;100.00;97403.00;5924386;23;20028;-81
2024/01/18 07:48:18;;;;;;;9.18;4.53;;;;;;;1.90;100.00;97414.97;5924853;23;20028;-81
2024/01/18 07:50:45;;;;;;;10.57;5.20;;;;;;;1.90;100.00;97399.28;5947359;23;20410;-81
2024/01/18 07:53:13;;;;;;;12.52;5.70;;;;;;;1.93;100.00;97423.38;5947622;23;20032;-82
2024/01/18 07:55:39;;;;;;;11.10;4.88;;;;;;;1.95;100.00;97420.59;5925290;23;20327;-81
2024/01/18 07:58:06;;;;;;;13.98;5.20;;;;;;;1.94;100.00;97406.69;5970741;23;20032;-81
2024/01/18 08:00:33;;;;;;;12.93;6.32;;;;;;;1.95;100.00;97420.59;5924094;23;20456;-83
2024/01/18 08:03:00;;;;;;;15.38;6.45;;;;;;;1.97;100.00;97421.31;5949743;23;20019;-81
2024/01/18 08:05:28;;;;;;;13.93;5.68;;;;;;;1.99;100.00;97421.16;5975240;23;20028;-81
2024/01/18 08:07:54;;;;;;;17.40;6.85;;;;;;;1.99;100.00;97416.75;5953002;23;20020;-81
2024/01/18 08:10:21;;;;;;;13.85;6.50;;;;;;;2.01;100.00;97427.06;5974905;23;20024;-81
2024/01/18 08:12:49;;;;;;;9.15;5.75;;;;;;;2.01;100.00;97427.91;5998727;23;20356;-81
2024/01/18 08:15:16;;;;;;;16.95;6.32;;;;;;;2.02;100.00;97418.25;5953179;23;20054;-81
2024/01/18 08:17:43;;;;;;;18.52;7.25;;;;;;;2.01;100.00;97422.69;5929763;23;20072;-81
2024/01/18 08:20:13;;;;;;;22.13;7.70;;;;;;;1.99;100.00;97437.69;5997492;23;20063;-81
2024/01/18 08:22:44;;;;;;;21.10;8.07;;;;;;;1.98;100.00;97433.41;5975398;23;20485;-81
2024/01/18 08:25:11;;;;;;;30.75;10.65;;;;;;;1.97;100.00;97433.56;5975619;23;20023;-81
2024/01/18 08:27:39;;;;;;;49.88;16.13;;;;;;;1.96;100.00;97437.97;5952953;23;20357;-81
2024/01/18 08:30:07;;;;;;;84.97;17.20;;;;;;;1.95;100.00;97450.22;5975396;23;20103;-81
2024/01/18 08:32:34;;;;;;;33.17;10.40;;;;;;;1.95;100.00;97447.59;5952109;23;20019;-81
2024/01/18 08:35:02;;;;;;;24.75;8.65;;;;;;;1.97;100.00;97449.28;5951962;23;20667;-81
2024/01/18 08:37:29;;;;;;;23.00;8.70;;;;;;;1.96;100.00;97440.59;5975871;23;20030;-81
2024/01/18 08:39:56;;;;;;;23.55;10.20;;;;;;;1.95;100.00;97449.41;5975161;23;20026;-81
2024/01/18 08:42:23;;;;;;;25.60;11.35;;;;;;;1.94;100.00;97451.19;5952167;23;20047;-82
2024/01/18 08:44:50;;;;;;;24.35;11.40;;;;;;;1.97;100.00;97467.59;5952458;23;20325;-81
2024/01/18 08:47:17;;;;;;;18.17;8.82;;;;;;;1.97;100.00;97464.97;5951644;23;20483;-81
2024/01/18 08:49:46;;;;;;;24.65;10.90;;;;;;;1.95;100.00;97479.00;5975104;23;20082;-81
2024/01/18 08:52:13;;;;;;;27.55;8.60;;;;;;;1.95;100.00;97486.84;5952255;23;20095;-82
2024/01/18 08:54:43;;;;;;;24.40;8.90;;;;;;;1.95;100.00;97496.50;5975197;23;20027;-82
2024/01/18 08:57:10;;;;;;;17.88;7.60;;;;;;;1.97;100.00;97501.63;5998774;23;20353;-82
2024/01/18 08:59:37;;;;;;;18.00;8.02;;;;;;;1.98;100.00;97506.69;5974865;23;20031;-81
2024/01/18 09:02:04;;;;;;;20.02;7.50;;;;;;;1.91;100.00;97514.28;5975987;23;20031;-81
2024/01/18 09:04:43;;;;;;;24.25;8.40;;;;;;;1.83;100.00;97519.41;5950842;23;20047;-81
2024/01/18 09:07:14;;;;;;;29.80;8.70;;;;;;;1.86;100.00;97519.09;5970498;23;20024;-81
2024/01/18 09:09:41;;;;;;;18.90;8.00;;;;;;;1.82;100.00;97520.34;5946646;23;20024;-81
2024/01/18 09:12:08;;;;;;;22.25;8.70;;;;;;;1.75;100.00;97529.69;5924250;23;20016;-82
2024/01/18 09:14:35;;;;;;;24.00;8.80;;;;;;;1.80;100.00;97542.38;5901964;23;20028;-81
2024/01/18 09:17:02;;;;;;;26.83;10.10;;;;;;;1.78;100.00;97549.53;5970947;23;20624;-82
2024/01/18 09:19:32;;;;;;;17.98;9.73;;;;;;;1.73;100.00;97555.16;5946782;23;20024;-81
2024/01/18 09:21:59;;;;;;;18.05;8.38;;;;;;;1.68;100.00;97570.44;5969711;23;20032;-81
2024/01/18 09:24:26;;;;;;;18.45;6.93;;;;;;;1.61;100.00;97572.78;5947700;23;20461;-82
2024/01/18 09:26:53;;;;;;;15.55;7.15;;;;;;;1.58;100.00;97574.81;5947741;23;20032;-81
2024/01/18 09:29:19;;;;;;;18.38;9.73;;;;;;;1.66;100.00;97577.63;5946137;23;20040;-81
2024/01/18 09:31:46;;;;;;;19.05;8.73;;;;;;;1.64;100.00;97579.53;5972861;23;20067;-81
2024/01/18 09:34:13;;;;;;;22.92;7.93;;;;;;;1.64;100.00;97582.97;5947316;23;20030;-81
2024/01/18 09:36:40;;;;;;;14.88;6.70;;;;;;;1.59;100.00;97577.31;5948441;23;20024;-81
2024/01/18 09:39:09;;;;;;;15.70;7.45;;;;;;;1.62;100.00;97591.91;5926636;23;20043;-81
2024/01/18 09:41:36;;;;;;;19.60;7.28;;;;;;;1.60;100.00;97592.03;5975320;23;20035;-81
2024/01/18 09:44:03;;;;;;;18.05;8.23;;;;;;;1.62;100.00;97591.91;5974326;23;20051;-82
2024/01/18 09:46:31;;;;;;;19.17;7.30;;;;;;;1.65;100.00;97599.50;5974250;23;20321;-82
2024/01/18 09:48:58;;;;;;;26.02;9.60;;;;;;;1.66;100.00;97612.44;5974134;23;20042;-82
2024/01/18 09:51:30;;;;;;;17.35;6.70;;;;;;;1.65;100.00;97628.25;5976115;23;20047;-82
2024/01/18 09:54:00;;;;;;;11.98;5.75;;;;;;;1.67;100.00;97636.81;5975253;23;20062;-82
2024/01/18 09:56:28;;;;;;;16.42;6.10;;;;;;;1.69;100.00;97642.75;5975149;23;20120;-82
2024/01/18 09:58:56;;;;;;;14.48;5.75;;;;;;;1.71;100.00;97640.84;5974955;23;20381;-82
2024/01/18 10:01:26;;;;;;;13.38;5.45;;;;;;;1.66;100.00;97656.09;5998659;23;20023;-82
2024/01/18 10:03:53;;;;;;;13.82;6.38;;;;;;;1.68;100.00;97664.63;5953555;23;20035;-82
2024/01/18 10:06:21;;;;;;;15.65;5.75;;;;;;;1.69;100.00;97672.34;5953933;23;20083;-82
2024/01/18 10:08:51;;;;;;;11.00;5.50;;;;;;;1.65;100.00;97673.56;5953553;23;20100;-83
2024/01/18 10:11:19;;;;;;;14.38;6.13;;;;;;;1.69;100.00;97669.72;5953756;23;20033;-83
2024/01/18 10:13:52;;;;;;;17.05;6.25;;;;;;;1.69;100.00;97687.22;5977449;23;20023;-82
2024/01/18 10:16:28;;;;;;;16.80;6.32;;;;;;;1.66;100.00;97679.66;5953738;23;20107;-82
2024/01/18 10:19:02;;;;;;;22.77;6.55;;;;;;;1.68;100.00;97682.94;6001347;23;20020;-82
2024/01/18 10:21:33;;;;;;;16.02;6.07;;;;;;;1.68;100.00;97696.88;5953444;23;20956;-83
2024/01/18 10:24:01;;;;;;;26.52;7.32;;;;;;;1.69;100.00;97702.91;5977816;23;20027;-82
2024/01/18 10:26:29;;;;;;;16.58;6.47;;;;;;;1.71;100.00;97711.47;5977039;23;20024;-82
2024/01/18 10:28:56;;;;;;;18.05;6.20;;;;;;;1.71;100.00;97714.91;5976566;23;20055;-82
2024/01/18 10:31:26;;;;;;;23.92;7.50;;;;;;;1.70;100.00;97720.25;5954305;23;20027;-83
2024/01/18 10:33:52;;;;;;;24.80;7.13;;;;;;;1.68;100.00;97724.78;5976663;23;20027;-83
2024/01/18 10:36:19;;;;;;;22.33;8.10;;;;;;;1.71;100.00;97721.94;5977308;23;20027;-82
2024/01/18 10:38:47;;;;;;;24.25;9.20;;;;;;;1.70;100.00;97728.09;5999235;23;20049;-82
2024/01/18 10:41:20;;;;;;;24.83;10.13;;;;;;;1.68;100.00;97725.66;5952999;23;20096;-81
2024/01/18 10:43:48;;;;;;;52.17;14.98;;;;;;;1.65;100.00;97732.91;5999603;23;20456;-83
2024/01/18 10:46:14;;;;;;;36.33;13.40;;;;;;;1.69;100.00;97736.94;5976656;23;20098;-83
2024/01/18 10:48:46;;;;;;;33.30;11.98;;;;;;;1.68;100.00;97749.19;5975469;23;20047;-83
2024/01/18 10:51:13;;;;;;;37.95;11.88;;;;;;;1.70;100.00;97744.63;5975783;23;20027;-83
2024/01/18 10:53:41;;;;;;;26.98;8.60;;;;;;;1.73;100.00;97752.25;5953810;23;20027;-83
2024/01/18 10:56:09;;;;;;;85.10;21.77;;;;;;;1.69;100.00;97752.63;5954071;23;20030;-83
2024/01/18 10:58:35;;;;;;;39.63;11.70;;;;;;;1.65;100.00;97762.50;5975914;23;20349;-83
2024/01/18 11:01:03;;;;;;;124.35;33.35;;;;;;;1.60;100.00;97761.25;5952841;23;20042;-83
2024/01/18 11:03:31;;;;;;;46.83;15.85;;;;;;;1.64;100.00;97765.28;5976422;23;20460;-83
2024/01/18 11:05:59;;;;;;;18.83;8.52;;;;;;;1.55;100.00;97768.66;5954347;23;20091;-82
2024/01/18 11:08:26;;;;;;;51.83;14.57;;;;;;;1.57;100.00;97764.13;5952044;23;20020;-83
2024/01/18 11:10:53;;;;;;;59.45;14.02;;;;;;;1.67;100.00;97778.91;5999311;23;20735;-83
2024/01/18 11:13:19;;;;;;;95.68;22.50;;;;;;;1.73;100.00;97796.72;5976276;23;20032;-83
2024/01/18 11:15:47;;;;;;;81.95;21.13;;;;;;;1.61;100.00;97792.53;5975953;23;20099;-83
2024/01/18 11:18:14;;;;;;;22.08;7.43;;;;;;;1.72;100.00;97794.22;5976079;23;20027;-83
2024/01/18 11:21:00;;;;;;;42.17;11.82;;;;;;;1.65;100.00;97796.50;5953068;23;20108;-83
2024/01/18 11:23:38;;;;;;;26.10;8.70;;;;;;;1.70;100.00;97799.56;5976109;23;20030;-82